sensor_id;sensor_type;location;lat;lon;timestamp;P1;durP1;ratioP1;P2;durP2;ratioP2
53287;SDS011;39172;45.550;12.072;2023-03-19T00:01:49;8.48;;;6.55;;
53287;SDS011;39172;45.550;12.072;2023-03-19T00:07:50;9.18;;;6.88;;
53287;SDS011;39172;45.550;12.072;2023-03-19T00:13:51;9.82;;;7.15;;
53287;SDS011;39172;45.550;12.072;2023-03-19T00:19:52;8.68;;;6.90;;
53287;SDS011;39172;45.550;12.072;2023-03-19T00:25:53;12.48;;;9.85;;
53287;SDS011;39172;45.550;12.072;2023-03-19T00:31:54;14.23;;;10.20;;
53287;SDS011;39172;45.550;12.072;2023-03-19T00:37:55;14.20;;;10.77;;
53287;SDS011;39172;45.550;12.072;2023-03-19T00:43:57;13.45;;;9.43;;
53287;SDS011;39172;45.550;12.072;2023-03-19T00:49:58;12.25;;;7.90;;
53287;SDS011;39172;45.550;12.072;2023-03-19T00:55:59;15.00;;;10.73;;
53287;SDS011;39172;45.550;12.072;2023-03-19T01:02:00;9.55;;;7.25;;
53287;SDS011;39172;45.550;12.072;2023-03-19T01:08:01;7.90;;;6.18;;
53287;SDS011;39172;45.550;12.072;2023-03-19T01:14:04;8.73;;;6.35;;
53287;SDS011;39172;45.550;12.072;2023-03-19T01:20:05;9.40;;;7.28;;
53287;SDS011;39172;45.550;12.072;2023-03-19T01:26:12;11.75;;;8.90;;
53287;SDS011;39172;45.550;12.072;2023-03-19T01:32:14;11.35;;;9.02;;
53287;SDS011;39172;45.550;12.072;2023-03-19T01:38:28;12.57;;;9.82;;
53287;SDS011;39172;45.550;12.072;2023-03-19T01:44:36;14.88;;;11.25;;
53287;SDS011;39172;45.550;12.072;2023-03-19T01:51:07;12.75;;;9.60;;
53287;SDS011;39172;45.550;12.072;2023-03-19T01:57:21;11.73;;;9.43;;
53287;SDS011;39172;45.550;12.072;2023-03-19T02:03:34;13.38;;;9.80;;
53287;SDS011;39172;45.550;12.072;2023-03-19T02:09:48;12.73;;;10.65;;
53287;SDS011;39172;45.550;12.072;2023-03-19T02:15:49;13.52;;;9.75;;
53287;SDS011;39172;45.550;12.072;2023-03-19T02:21:51;10.30;;;8.18;;
53287;SDS011;39172;45.550;12.072;2023-03-19T02:27:53;9.95;;;7.63;;
53287;SDS011;39172;45.550;12.072;2023-03-19T02:34:02;9.10;;;6.97;;
53287;SDS011;39172;45.550;12.072;2023-03-19T02:40:05;8.50;;;6.95;;
53287;SDS011;39172;45.550;12.072;2023-03-19T02:46:09;7.85;;;5.97;;
53287;SDS011;39172;45.550;12.072;2023-03-19T02:52:11;11.18;;;7.82;;
53287;SDS011;39172;45.550;12.072;2023-03-19T02:58:13;10.30;;;8.57;;
53287;SDS011;39172;45.550;12.072;2023-03-19T03:04:14;12.77;;;9.75;;
53287;SDS011;39172;45.550;12.072;2023-03-19T03:10:16;13.32;;;9.95;;
53287;SDS011;39172;45.550;12.072;2023-03-19T03:16:17;14.05;;;10.18;;
53287;SDS011;39172;45.550;12.072;2023-03-19T03:22:18;15.52;;;11.38;;
53287;SDS011;39172;45.550;12.072;2023-03-19T03:28:19;12.98;;;10.13;;
53287;SDS011;39172;45.550;12.072;2023-03-19T03:34:20;14.38;;;10.80;;
53287;SDS011;39172;45.550;12.072;2023-03-19T03:40:21;13.63;;;10.95;;
53287;SDS011;39172;45.550;12.072;2023-03-19T03:46:22;12.88;;;10.07;;
53287;SDS011;39172;45.550;12.072;2023-03-19T03:52:25;12.90;;;9.75;;
53287;SDS011;39172;45.550;12.072;2023-03-19T03:58:31;13.75;;;10.45;;
53287;SDS011;39172;45.550;12.072;2023-03-19T04:04:32;14.90;;;11.43;;
53287;SDS011;39172;45.550;12.072;2023-03-19T04:10:33;15.18;;;11.70;;
53287;SDS011;39172;45.550;12.072;2023-03-19T04:16:36;13.40;;;10.20;;
53287;SDS011;39172;45.550;12.072;2023-03-19T04:22:37;12.00;;;9.43;;
53287;SDS011;39172;45.550;12.072;2023-03-19T04:28:38;14.23;;;10.73;;
53287;SDS011;39172;45.550;12.072;2023-03-19T04:34:39;14.90;;;11.38;;
53287;SDS011;39172;45.550;12.072;2023-03-19T04:40:42;13.95;;;10.38;;
53287;SDS011;39172;45.550;12.072;2023-03-19T04:46:43;11.57;;;9.45;;
53287;SDS011;39172;45.550;12.072;2023-03-19T04:52:49;10.90;;;8.63;;
53287;SDS011;39172;45.550;12.072;2023-03-19T04:58:50;12.80;;;10.18;;
53287;SDS011;39172;45.550;12.072;2023-03-19T05:04:51;14.85;;;11.73;;
53287;SDS011;39172;45.550;12.072;2023-03-19T05:10:53;16.25;;;12.30;;
53287;SDS011;39172;45.550;12.072;2023-03-19T05:16:54;16.30;;;12.60;;
53287;SDS011;39172;45.550;12.072;2023-03-19T05:22:55;14.23;;;11.07;;
53287;SDS011;39172;45.550;12.072;2023-03-19T05:29:06;14.68;;;10.52;;
53287;SDS011;39172;45.550;12.072;2023-03-19T05:35:21;11.35;;;8.82;;
53287;SDS011;39172;45.550;12.072;2023-03-19T05:41:23;11.93;;;8.80;;
53287;SDS011;39172;45.550;12.072;2023-03-19T05:47:33;12.50;;;10.27;;
53287;SDS011;39172;45.550;12.072;2023-03-19T05:53:35;15.30;;;11.88;;
53287;SDS011;39172;45.550;12.072;2023-03-19T06:00:05;16.35;;;11.85;;
53287;SDS011;39172;45.550;12.072;2023-03-19T06:06:07;16.25;;;13.00;;
53287;SDS011;39172;45.550;12.072;2023-03-19T06:12:12;14.48;;;11.18;;
53287;SDS011;39172;45.550;12.072;2023-03-19T06:18:46;14.60;;;10.77;;
53287;SDS011;39172;45.550;12.072;2023-03-19T06:24:49;12.38;;;10.15;;
53287;SDS011;39172;45.550;12.072;2023-03-19T06:30:53;13.93;;;10.60;;
53287;SDS011;39172;45.550;12.072;2023-03-19T06:37:20;14.68;;;11.63;;
53287;SDS011;39172;45.550;12.072;2023-03-19T06:43:21;15.40;;;11.55;;
53287;SDS011;39172;45.550;12.072;2023-03-19T06:49:22;14.25;;;10.98;;
53287;SDS011;39172;45.550;12.072;2023-03-19T06:55:23;14.27;;;11.50;;
53287;SDS011;39172;45.550;12.072;2023-03-19T07:01:24;15.93;;;12.60;;
53287;SDS011;39172;45.550;12.072;2023-03-19T07:07:25;18.00;;;14.10;;
53287;SDS011;39172;45.550;12.072;2023-03-19T07:13:26;19.95;;;12.95;;
53287;SDS011;39172;45.550;12.072;2023-03-19T07:19:27;16.58;;;12.40;;
53287;SDS011;39172;45.550;12.072;2023-03-19T07:25:28;15.35;;;12.00;;
53287;SDS011;39172;45.550;12.072;2023-03-19T07:31:29;17.70;;;13.45;;
53287;SDS011;39172;45.550;12.072;2023-03-19T07:37:31;17.70;;;13.93;;
53287;SDS011;39172;45.550;12.072;2023-03-19T07:43:32;16.55;;;12.75;;
53287;SDS011;39172;45.550;12.072;2023-03-19T07:49:33;17.15;;;13.43;;
53287;SDS011;39172;45.550;12.072;2023-03-19T07:55:34;15.82;;;12.20;;
53287;SDS011;39172;45.550;12.072;2023-03-19T08:01:35;14.00;;;10.60;;
53287;SDS011;39172;45.550;12.072;2023-03-19T08:07:36;14.50;;;11.90;;
53287;SDS011;39172;45.550;12.072;2023-03-19T08:13:37;15.32;;;11.70;;
53287;SDS011;39172;45.550;12.072;2023-03-19T08:19:38;14.07;;;10.90;;
53287;SDS011;39172;45.550;12.072;2023-03-19T08:25:39;14.73;;;11.02;;
53287;SDS011;39172;45.550;12.072;2023-03-19T08:31:39;13.82;;;10.48;;
53287;SDS011;39172;45.550;12.072;2023-03-19T08:37:41;13.43;;;10.38;;
53287;SDS011;39172;45.550;12.072;2023-03-19T08:43:42;13.32;;;10.27;;
53287;SDS011;39172;45.550;12.072;2023-03-19T08:49:42;13.35;;;9.88;;
53287;SDS011;39172;45.550;12.072;2023-03-19T08:55:43;12.73;;;9.63;;
53287;SDS011;39172;45.550;12.072;2023-03-19T09:01:44;11.90;;;8.75;;
53287;SDS011;39172;45.550;12.072;2023-03-19T09:07:45;11.07;;;8.23;;
53287;SDS011;39172;45.550;12.072;2023-03-19T09:13:46;10.20;;;8.13;;
53287;SDS011;39172;45.550;12.072;2023-03-19T09:19:47;9.40;;;6.95;;
53287;SDS011;39172;45.550;12.072;2023-03-19T09:25:48;8.60;;;6.70;;
53287;SDS011;39172;45.550;12.072;2023-03-19T09:31:49;7.60;;;6.10;;
53287;SDS011;39172;45.550;12.072;2023-03-19T09:37:50;9.48;;;7.25;;
53287;SDS011;39172;45.550;12.072;2023-03-19T09:50:12;8.40;;;5.60;;
53287;SDS011;39172;45.550;12.072;2023-03-19T09:56:14;6.40;;;4.75;;
53287;SDS011;39172;45.550;12.072;2023-03-19T10:20:48;8.55;;;7.00;;
53287;SDS011;39172;45.550;12.072;2023-03-19T10:26:55;8.23;;;6.72;;
53287;SDS011;39172;45.550;12.072;2023-03-19T10:33:02;9.57;;;7.25;;
53287;SDS011;39172;45.550;12.072;2023-03-19T10:39:06;7.03;;;5.40;;
53287;SDS011;39172;45.550;12.072;2023-03-19T10:51:15;12.65;;;9.70;;
53287;SDS011;39172;45.550;12.072;2023-03-19T10:57:24;13.38;;;9.52;;
53287;SDS011;39172;45.550;12.072;2023-03-19T11:09:33;9.75;;;7.43;;
53287;SDS011;39172;45.550;12.072;2023-03-19T11:15:37;9.48;;;6.80;;
53287;SDS011;39172;45.550;12.072;2023-03-19T11:21:38;9.18;;;7.22;;
53287;SDS011;39172;45.550;12.072;2023-03-19T11:27:39;8.48;;;5.72;;
53287;SDS011;39172;45.550;12.072;2023-03-19T11:39:57;6.93;;;4.68;;
53287;SDS011;39172;45.550;12.072;2023-03-19T11:46:12;7.45;;;5.60;;
53287;SDS011;39172;45.550;12.072;2023-03-19T12:10:51;6.43;;;5.40;;
53287;SDS011;39172;45.550;12.072;2023-03-19T12:35:48;7.78;;;6.05;;
53287;SDS011;39172;45.550;12.072;2023-03-19T12:41:49;10.75;;;7.88;;
53287;SDS011;39172;45.550;12.072;2023-03-19T12:47:53;9.95;;;7.13;;
53287;SDS011;39172;45.550;12.072;2023-03-19T12:53:59;11.68;;;8.98;;
53287;SDS011;39172;45.550;12.072;2023-03-19T13:18:53;8.80;;;6.47;;
53287;SDS011;39172;45.550;12.072;2023-03-19T13:24:46;8.95;;;6.38;;
53287;SDS011;39172;45.550;12.072;2023-03-19T13:30:58;8.90;;;6.68;;
53287;SDS011;39172;45.550;12.072;2023-03-19T13:37:03;11.65;;;7.72;;
53287;SDS011;39172;45.550;12.072;2023-03-19T13:55:29;7.18;;;5.32;;
53287;SDS011;39172;45.550;12.072;2023-03-19T14:01:36;8.45;;;6.20;;
53287;SDS011;39172;45.550;12.072;2023-03-19T14:07:37;10.70;;;7.25;;
53287;SDS011;39172;45.550;12.072;2023-03-19T14:13:40;8.00;;;6.05;;
53287;SDS011;39172;45.550;12.072;2023-03-19T14:19:42;6.55;;;5.28;;
53287;SDS011;39172;45.550;12.072;2023-03-19T14:26:01;7.50;;;5.75;;
53287;SDS011;39172;45.550;12.072;2023-03-19T14:32:05;8.55;;;6.20;;
53287;SDS011;39172;45.550;12.072;2023-03-19T14:38:42;9.68;;;7.50;;
53287;SDS011;39172;45.550;12.072;2023-03-19T14:57:15;6.80;;;5.70;;
53287;SDS011;39172;45.550;12.072;2023-03-19T15:09:23;9.52;;;7.07;;
53287;SDS011;39172;45.550;12.072;2023-03-19T15:15:29;7.78;;;6.30;;
53287;SDS011;39172;45.550;12.072;2023-03-19T15:21:31;10.13;;;7.57;;
53287;SDS011;39172;45.550;12.072;2023-03-19T15:27:32;10.93;;;7.40;;
53287;SDS011;39172;45.550;12.072;2023-03-19T15:33:34;9.10;;;7.18;;
53287;SDS011;39172;45.550;12.072;2023-03-19T15:39:39;10.48;;;7.68;;
53287;SDS011;39172;45.550;12.072;2023-03-19T15:45:43;10.50;;;7.30;;
53287;SDS011;39172;45.550;12.072;2023-03-19T15:51:46;8.13;;;6.07;;
53287;SDS011;39172;45.550;12.072;2023-03-19T15:57:51;6.88;;;4.57;;
53287;SDS011;39172;45.550;12.072;2023-03-19T16:04:06;5.32;;;3.83;;
53287;SDS011;39172;45.550;12.072;2023-03-19T16:16:28;5.82;;;3.92;;
53287;SDS011;39172;45.550;12.072;2023-03-19T16:22:30;6.07;;;3.60;;
53287;SDS011;39172;45.550;12.072;2023-03-19T16:28:31;5.53;;;4.43;;
53287;SDS011;39172;45.550;12.072;2023-03-19T16:40:43;6.65;;;4.10;;
53287;SDS011;39172;45.550;12.072;2023-03-19T16:46:44;5.18;;;3.88;;
53287;SDS011;39172;45.550;12.072;2023-03-19T16:52:45;4.70;;;3.40;;
53287;SDS011;39172;45.550;12.072;2023-03-19T16:58:47;3.65;;;2.92;;
53287;SDS011;39172;45.550;12.072;2023-03-19T17:04:48;4.22;;;3.05;;
53287;SDS011;39172;45.550;12.072;2023-03-19T17:10:49;3.97;;;2.78;;
53287;SDS011;39172;45.550;12.072;2023-03-19T17:16:51;3.67;;;2.80;;
53287;SDS011;39172;45.550;12.072;2023-03-19T17:22:53;3.20;;;2.70;;
53287;SDS011;39172;45.550;12.072;2023-03-19T17:28:55;4.32;;;3.13;;
53287;SDS011;39172;45.550;12.072;2023-03-19T17:34:56;3.85;;;3.10;;
53287;SDS011;39172;45.550;12.072;2023-03-19T17:40:57;4.60;;;2.72;;
53287;SDS011;39172;45.550;12.072;2023-03-19T17:46:58;5.28;;;4.03;;
53287;SDS011;39172;45.550;12.072;2023-03-19T17:52:58;6.20;;;4.22;;
53287;SDS011;39172;45.550;12.072;2023-03-19T17:59:00;6.43;;;4.90;;
53287;SDS011;39172;45.550;12.072;2023-03-19T18:05:01;5.63;;;4.30;;
53287;SDS011;39172;45.550;12.072;2023-03-19T18:11:02;5.68;;;3.83;;
53287;SDS011;39172;45.550;12.072;2023-03-19T18:17:03;4.45;;;3.50;;
53287;SDS011;39172;45.550;12.072;2023-03-19T18:23:04;5.10;;;3.55;;
53287;SDS011;39172;45.550;12.072;2023-03-19T18:29:05;4.40;;;3.03;;
53287;SDS011;39172;45.550;12.072;2023-03-19T18:35:08;3.75;;;3.08;;
53287;SDS011;39172;45.550;12.072;2023-03-19T18:41:11;4.78;;;3.47;;
53287;SDS011;39172;45.550;12.072;2023-03-19T18:47:16;6.68;;;4.50;;
53287;SDS011;39172;45.550;12.072;2023-03-19T18:53:17;4.75;;;3.80;;
53287;SDS011;39172;45.550;12.072;2023-03-19T18:59:25;4.90;;;3.50;;
53287;SDS011;39172;45.550;12.072;2023-03-19T19:05:27;4.43;;;3.50;;
53287;SDS011;39172;45.550;12.072;2023-03-19T19:11:28;5.47;;;4.13;;
53287;SDS011;39172;45.550;12.072;2023-03-19T19:17:29;5.07;;;3.78;;
53287;SDS011;39172;45.550;12.072;2023-03-19T19:23:31;4.05;;;3.65;;
53287;SDS011;39172;45.550;12.072;2023-03-19T19:29:32;5.07;;;3.92;;
53287;SDS011;39172;45.550;12.072;2023-03-19T19:35:34;5.00;;;4.10;;
53287;SDS011;39172;45.550;12.072;2023-03-19T19:41:35;3.85;;;3.40;;
53287;SDS011;39172;45.550;12.072;2023-03-19T19:47:36;4.68;;;3.88;;
53287;SDS011;39172;45.550;12.072;2023-03-19T19:53:37;3.90;;;3.05;;
53287;SDS011;39172;45.550;12.072;2023-03-19T19:59:37;4.35;;;3.38;;
53287;SDS011;39172;45.550;12.072;2023-03-19T20:05:38;4.32;;;3.30;;
53287;SDS011;39172;45.550;12.072;2023-03-19T20:11:39;4.65;;;3.78;;
53287;SDS011;39172;45.550;12.072;2023-03-19T20:17:40;5.47;;;4.43;;
53287;SDS011;39172;45.550;12.072;2023-03-19T20:23:42;5.70;;;4.18;;
53287;SDS011;39172;45.550;12.072;2023-03-19T20:29:43;5.10;;;3.85;;
53287;SDS011;39172;45.550;12.072;2023-03-19T20:35:44;4.82;;;3.95;;
53287;SDS011;39172;45.550;12.072;2023-03-19T20:41:46;5.20;;;4.00;;
53287;SDS011;39172;45.550;12.072;2023-03-19T20:47:49;5.28;;;4.13;;
53287;SDS011;39172;45.550;12.072;2023-03-19T20:53:52;4.70;;;3.67;;
53287;SDS011;39172;45.550;12.072;2023-03-19T20:59:53;4.07;;;3.58;;
53287;SDS011;39172;45.550;12.072;2023-03-19T21:05:56;4.63;;;3.47;;
53287;SDS011;39172;45.550;12.072;2023-03-19T21:11:59;4.05;;;3.25;;
53287;SDS011;39172;45.550;12.072;2023-03-19T21:18:00;4.47;;;3.50;;
53287;SDS011;39172;45.550;12.072;2023-03-19T21:24:05;4.93;;;3.90;;
53287;SDS011;39172;45.550;12.072;2023-03-19T21:30:09;5.63;;;4.18;;
53287;SDS011;39172;45.550;12.072;2023-03-19T21:36:13;4.28;;;3.50;;
53287;SDS011;39172;45.550;12.072;2023-03-19T21:42:15;3.33;;;2.70;;
53287;SDS011;39172;45.550;12.072;2023-03-19T21:54:19;3.90;;;3.00;;
53287;SDS011;39172;45.550;12.072;2023-03-19T22:00:20;3.83;;;3.20;;
53287;SDS011;39172;45.550;12.072;2023-03-19T22:06:21;5.88;;;4.60;;
53287;SDS011;39172;45.550;12.072;2023-03-19T22:12:24;5.68;;;4.80;;
53287;SDS011;39172;45.550;12.072;2023-03-19T22:18:27;5.63;;;4.70;;
53287;SDS011;39172;45.550;12.072;2023-03-19T22:24:28;5.80;;;4.88;;
53287;SDS011;39172;45.550;12.072;2023-03-19T22:36:30;8.07;;;6.25;;
53287;SDS011;39172;45.550;12.072;2023-03-19T22:42:31;5.68;;;5.00;;
53287;SDS011;39172;45.550;12.072;2023-03-19T22:48:32;5.57;;;4.40;;
53287;SDS011;39172;45.550;12.072;2023-03-19T22:54:33;4.57;;;3.97;;
53287;SDS011;39172;45.550;12.072;2023-03-19T23:00:34;4.45;;;3.55;;
53287;SDS011;39172;45.550;12.072;2023-03-19T23:06:35;4.40;;;3.40;;
53287;SDS011;39172;45.550;12.072;2023-03-19T23:12:36;5.82;;;4.78;;
53287;SDS011;39172;45.550;12.072;2023-03-19T23:18:37;7.90;;;6.85;;
53287;SDS011;39172;45.550;12.072;2023-03-19T23:24:38;10.63;;;8.63;;
53287;SDS011;39172;45.550;12.072;2023-03-19T23:30:40;7.55;;;6.10;;
53287;SDS011;39172;45.550;12.072;2023-03-19T23:36:41;7.65;;;6.15;;
53287;SDS011;39172;45.550;12.072;2023-03-19T23:42:44;6.47;;;5.18;;
53287;SDS011;39172;45.550;12.072;2023-03-19T23:48:45;5.15;;;4.40;;
53287;SDS011;39172;45.550;12.072;2023-03-19T23:54:46;6.07;;;4.97;;
